METAR Data
IDs: Format: Raw Decoded Include TAF

Data at: 1716 UTC 21 Sep 2018

KPEQ 211655Z AUTO 32012KT 10SM BKN019 BKN025 BKN048 24/20 A3006 RMK AO2 T02400196
KPEQ 211635Z AUTO 31010G17KT 10SM BKN017 BKN026 BKN048 24/20 A3005 RMK AO2 T02400199
KPEQ 211615Z AUTO 31011KT 10SM SCT017 BKN027 BKN036 23/20 A3005 RMK AO2 T02330197
KPEQ 211555Z AUTO 31011KT 10SM SCT015 SCT026 OVC035 23/20 A3005 RMK AO2 T02280195
KPEQ 211535Z AUTO 32011KT 10SM SCT012 SCT031 23/20 A3004 RMK AO2 T02310197
KPEQ 211515Z AUTO 31011KT 10SM SCT012 23/20 A3003 RMK AO2 T02250197
KPEQ 211455Z AUTO 31011KT 10SM SCT017 22/20 A3002 RMK AO2 T02190195
KPEQ 211435Z AUTO 30008KT 10SM SCT006 21/20 A3002 RMK AO2 T02060195
KPEQ 211415Z AUTO 30009KT 10SM BKN006 20/19 A3002 RMK AO2 T02000189
KPEQ 211355Z AUTO 27005KT 10SM BKN006 BKN010 19/18 A3000 RMK AO2 T01920179
KPEQ 211335Z AUTO 27005KT 10SM BKN008 OVC012 19/18 A3000 RMK AO2 T01890177
KPEQ 211315Z AUTO 28005KT 10SM BKN008 19/18 A2999 RMK AO2 T01850175
KPEQ 211255Z AUTO 28004KT 10SM SCT008 18/17 A2998 RMK AO2 LTG DSNT E T01820173
KPEQ 211235Z AUTO 28006KT 10SM CLR 18/17 A2997 RMK AO2 T01830173
KPEQ 211215Z AUTO 28006KT 10SM CLR 18/18 A2996 RMK AO2 LTG DSNT E T01830175
KPEQ 211155Z AUTO 27007KT 10SM CLR 18/18 A2995 RMK AO2 70044 T01810177 10202 20181
KPEQ 211135Z AUTO 27006KT 10SM CLR 18/18 A2995 RMK AO2 T01830180
KPEQ 211115Z AUTO 27004KT 10SM CLR 19/18 A2994 RMK AO2 T01850182
KPEQ 211055Z AUTO 27005KT 10SM CLR 19/19 A2993 RMK AO2 T01870185
KPEQ 211035Z AUTO 26004KT 10SM SCT001 19/19 A2993 RMK AO2 T01880185
KPEQ 211015Z AUTO 00000KT 1 1/2SM BR OVC001 19/19 A2992 RMK AO2 LTG DSNT E T01880185
KPEQ 210955Z AUTO 24003KT 3/4SM BR OVC001 19/19 A2992 RMK AO2 T01900187
KPEQ 210935Z AUTO 27003KT 1/4SM DZ OVC001 19/19 A2992 RMK AO2 T01930190
KPEQ 210915Z AUTO 21003KT M1/4SM -RA OVC003 20/19 A2992 RMK AO2 LTG DSNT SE T01960193
KPEQ 210855Z AUTO 00000KT 1/2SM FG OVC003 19/19 A2992 RMK AO2 T01940190
KPEQ 210835Z AUTO 00000KT 1SM BR OVC003 19/19 A2993 RMK AO2 LTG DSNT E T01900187
KPEQ 210815Z AUTO 00000KT 5SM BR CLR 19/19 A2992 RMK AO2 LTG DSNT SE T01910188
KPEQ 210755Z AUTO 00000KT 10SM SCT110 20/20 A2992 RMK AO2 LTG DSNT E T01970195
KPEQ 210735Z AUTO 00000KT 10SM SCT110 20/19 A2992 RMK AO2 LTG DSNT E AND SE T01960193
KPEQ 210715Z AUTO 00000KT 10SM BKN110 20/19 A2992 RMK AO2 LTG DSNT SE T01960192
KPEQ 210655Z AUTO 00000KT 10SM SCT090 BKN110 20/19 A2992 RMK AO2 LTG DSNT E AND SE T01960192
KPEQ 210635Z AUTO 00000KT 10SM SCT090 20/19 A2993 RMK AO2 LTG DSNT E AND SE T01960192
KPEQ 210615Z AUTO 10003KT 10SM SCT090 20/19 A2993 RMK AO2 LTG DSNT E AND SE T01970192
KPEQ 210555Z AUTO 00000KT 10SM CLR 20/20 A2994 RMK AO2 LTG DSNT E AND SE 60001 T02010196 10223 20200 402840197
KPEQ 210535Z AUTO 00000KT 10SM CLR 20/20 A2994 RMK AO2 LTG DSNT E AND SE T02000195
KPEQ 210515Z AUTO 00000KT 10SM SCT120 20/20 A2994 RMK AO2 LTG DSNT E AND SE T02030197
KPEQ 210455Z AUTO 00000KT 10SM SCT120 20/20 A2993 RMK AO2 LTG DSNT E AND SE T02040198
KPEQ 210435Z AUTO 00000KT 10SM CLR 21/20 A2993 RMK AO2 LTG DSNT E AND SE T02050198
KPEQ 210415Z AUTO 00000KT 10SM SCT120 20/20 A2993 RMK AO2 LTG DSNT E AND SE T02030197
KPEQ 210355Z AUTO 16003KT 10SM SCT120 20/20 A2992 RMK AO2 LTG DSNT E T02020195
KPEQ 210335Z AUTO 14004KT 10SM VCTS SCT095 20/20 A2992 RMK AO2 LTG DSNT E AND SE T02020195
KPEQ 210315Z AUTO 15004KT 10SM SCT095 20/20 A2992 RMK AO2 LTG DSNT E AND SE T02030196
KPEQ 210255Z AUTO 14004KT 10SM VCTSRA SCT055 SCT065 BKN095 21/20 A2992 RMK AO2 LTG DSNT E AND SE 60001 T02050197
KPEQ 210235Z AUTO 09006KT 10SM VCTS SCT050 OVC080 21/20 A2991 RMK AO2 LTG DSNT E T02110199
KPEQ 210215Z AUTO 00000KT 10SM -RA SCT042 BKN048 OVC080 21/20 A2991 RMK AO2 LTG DSNT E T02100195
KPEQ 210155Z AUTO 26003KT 10SM DZ BKN040 BKN048 OVC060 21/20 A2990 RMK AO2 P0001 T02120196
KPEQ 210135Z AUTO 30008KT 10SM BKN041 BKN050 OVC065 22/19 A2989 RMK AO2 LTG DSNT S T02150192
KPEQ 210115Z AUTO 29007KT 10SM BKN055 OVC065 22/19 A2988 RMK AO2 T02200192
KPEQ 210055Z AUTO 29009KT 10SM OVC065 22/20 A2988 RMK AO2 T02190199
KPEQ 210035Z AUTO 29010KT 10SM BKN065 OVC090 22/20 A2987 RMK AO2 LTG DSNT NE T02200199
KPEQ 210015Z AUTO 29006KT 10SM SCT050 SCT075 OVC090 22/20 A2986 RMK AO2 LTG DSNT NE T02210202
KPEQ 202355Z AUTO 00000KT 10SM SCT050 BKN100 OVC120 22/20 A2985 RMK AO2 P0043 60043 T02200199 10284 20209
KPEQ 202335Z AUTO 00000KT 5SM -RA SCT021 BKN040 OVC075 21/20 A2985 RMK AO2 P0043 T02110195
KPEQ 202315Z AUTO 18019G24KT 2 1/2SM +RA SCT016 BKN050 OVC090 22/20 A2986 RMK AO2 VIS 1 1/4V5 P0016 T02220196
KPEQ 202255Z AUTO 11006KT 10SM RA BKN090 27/19 A2982 RMK AO2 LTG DSNT NW T02740187
KPEQ 202235Z AUTO 11008KT 10SM CLR 28/18 A2982 RMK AO2 T02770180
KPEQ 202215Z AUTO 13009KT 10SM CLR 28/18 A2983 RMK AO2 T02820181
KPEQ 202155Z AUTO 14009KT 10SM CLR 28/19 A2982 RMK AO2 T02810186
KPEQ 202135Z AUTO 13007KT 10SM SCT100 28/19 A2983 RMK AO2 T02820191
KPEQ 202115Z AUTO 14008KT 10SM SCT075 28/19 A2984 RMK AO2 T02770186
KPEQ 202055Z AUTO 14008KT 10SM SCT090 27/18 A2984 RMK AO2 T02710180
KPEQ 202035Z AUTO 15009KT 10SM SCT090 BKN110 28/18 A2985 RMK AO2 T02750180
KPEQ 202015Z AUTO 16010KT 10SM SCT090 BKN110 28/18 A2986 RMK AO2 T02770180
KPEQ 201955Z AUTO 12008KT 10SM SCT070 SCT080 BKN110 27/18 A2986 RMK AO2 T02710182
KPEQ 201935Z AUTO 13012KT 10SM SCT070 OVC080 27/19 A2988 RMK AO2 LTG DSNT NW T02680185
KPEQ 201915Z AUTO 13010KT 10SM OVC070 26/19 A2989 RMK AO2 T02610186
KPEQ 201855Z AUTO 13009KT 10SM OVC070 26/18 A2990 RMK AO2 T02560184
KPEQ 201835Z AUTO 14010KT 10SM OVC070 26/19 A2990 RMK AO2 T02560185
KPEQ 201815Z AUTO 14009G14KT 10SM BKN070 OVC100 26/18 A2991 RMK AO2 T02560184
KPEQ 201755Z AUTO 14010KT 10SM SCT070 OVC080 26/18 A2991 RMK AO2 T02570182 10258 20197
KPEQ 201735Z AUTO 14012G15KT 10SM SCT075 OVC080 26/19 A2992 RMK AO2 T02550187
KPEQ 201715Z AUTO 15011KT 10SM OVC075 26/19 A2993 RMK AO2 T02550185
KPEQ 201655Z AUTO 15007KT 10SM BKN075 OVC095 26/18 A2993 RMK AO2 T02560184
KPEQ 201635Z AUTO 13007KT 10SM SCT075 OVC095 26/19 A2993 RMK AO2 T02550189
KPEQ 201615Z AUTO 11008KT 10SM SCT075 OVC085 25/18 A2993 RMK AO2 T02510183
KPEQ 201555Z AUTO 13007KT 10SM OVC075 24/18 A2993 RMK AO2 T02420180
KPEQ 201535Z AUTO 12007KT 10SM OVC075 24/19 A2993 RMK AO2 T02370185
KPEQ 201515Z AUTO 11004KT 10SM BKN075 OVC085 23/19 A2993 RMK AO2 T02260185
KPEQ 201455Z AUTO 08005KT 10SM SCT075 OVC085 22/18 A2993 RMK AO2 T02170179
KPEQ 201435Z AUTO 10005KT 10SM SCT048 SCT055 OVC075 21/18 A2993 RMK AO2 T02100177
KPEQ 201415Z AUTO 12007KT 10SM SCT048 SCT050 OVC065 21/18 A2992 RMK AO2 T02100175
KPEQ 201355Z AUTO 11006KT 10SM OVC065 21/17 A2992 RMK AO2 T02050171
KPEQ 201335Z AUTO 12006KT 10SM BKN065 OVC075 20/17 A2991 RMK AO2 T02030169
KPEQ 201315Z AUTO 11007KT 10SM SCT055 BKN075 OVC090 20/17 A2991 RMK AO2 T02000166
KPEQ 201255Z AUTO 11006KT 10SM SCT055 BKN065 OVC090 20/17 A2991 RMK AO2 T01970166
KPEQ 201235Z AUTO 11006KT 10SM SCT065 BKN075 OVC090 20/17 A2990 RMK AO2 T01980166
KPEQ 201215Z AUTO 11006KT 10SM BKN060 OVC075 20/17 A2990 RMK AO2 T01980167
KPEQ 201155Z AUTO 11006KT 10SM SCT060 BKN075 20/17 A2990 RMK AO2 70050 T02020170 10215 20197
KPEQ 201135Z AUTO 12008KT 10SM BKN075 BKN085 20/17 A2990 RMK AO2 T02030167
KPEQ 201115Z AUTO 14008KT 10SM BKN070 21/17 A2989 RMK AO2 T02050166
KPEQ 201055Z AUTO 13008KT 10SM CLR 20/17 A2989 RMK AO2 T02040165
KPEQ 201035Z AUTO 13008KT 10SM CLR 20/16 A2989 RMK AO2 T02020164
KPEQ 201010Z AUTO 12009KT 10SM CLR 20/16 A2988 RMK AO2 T02010163
KPEQ 200955Z AUTO 12009KT 10SM CLR 20/16 A2988 RMK AO2 T02010163
KPEQ 200935Z AUTO 11010KT 10SM CLR 20/16 A2989 RMK AO2 T01980162
KPEQ 200915Z AUTO 11010KT 10SM CLR 20/16 A2989 RMK AO2 T01980163
KPEQ 200855Z AUTO 11009KT 10SM CLR 20/16 A2990 RMK AO2 T02000163
KPEQ 200835Z AUTO 11010KT 10SM CLR 20/17 A2991 RMK AO2 T02010165
KPEQ 200815Z AUTO 11010KT 10SM CLR 20/16 A2991 RMK AO2 T02030163
KPEQ 200755Z AUTO 11010KT 10SM CLR 20/17 A2991 RMK AO2 T02020165
KPEQ 200735Z AUTO 11010KT 10SM CLR 20/17 A2991 RMK AO2 T02020165
KPEQ 200715Z AUTO 12009KT 10SM CLR 21/17 A2991 RMK AO2 T02050165
KPEQ 200655Z AUTO 11011KT 10SM CLR 21/17 A2991 RMK AO2 T02060166
KPEQ 200635Z AUTO 12009KT 10SM CLR 21/17 A2990 RMK AO2 T02100169
KPEQ 200615Z AUTO 11007KT 10SM CLR 22/18 A2991 RMK AO2 T02150178
KPEQ 200555Z AUTO 10008KT 10SM SCT120 22/18 A2991 RMK AO2 60003 T02150180 10224 20201 403400201
KPEQ 200535Z AUTO 13006KT 10SM BKN120 22/18 A2991 RMK AO2 T02170180